Time;durP1;ratioP1;P1;durP2;ratioP2;P2;SDS_P1;SDS_P2;PMS_P1;PMS_P2;Temp;Humidity;BMP_temperature;BMP_pressure;BME280_temperature;BME280_humidity;BME280_pressure;Samples;Min_cycle;Max_cycle;Signal;HPM_P1;HPM_P2
2022/09/10 00:01:31;;;;;;;0.20;0.20;;;16.20;99.90;;;;;;4875056;29;20045;-76
2022/09/10 00:03:57;;;;;;;0.10;0.10;;;16.30;99.90;;;;;;4871597;29;20051;-75
2022/09/10 00:06:26;;;;;;;0.10;0.10;;;16.20;99.90;;;;;;4857582;29;20051;-76
2022/09/10 00:08:55;;;;;;;0.10;0.10;;;16.20;99.90;;;;;;4855204;29;20105;-76
2022/09/10 00:11:21;;;;;;;0.20;0.20;;;16.20;99.90;;;;;;4854632;29;20092;-77
2022/09/10 00:13:46;;;;;;;0.10;0.10;;;16.20;99.90;;;;;;4855061;29;20045;-76
2022/09/10 00:16:14;;;;;;;0.10;0.10;;;16.10;99.90;;;;;;4873584;29;20049;-74
2022/09/10 00:18:40;;;;;;;0.20;0.20;;;16.20;99.90;;;;;;4874236;29;20045;-75
2022/09/10 00:21:09;;;;;;;0.10;0.10;;;16.10;99.90;;;;;;4881613;29;20037;-74
2022/09/10 00:23:35;;;;;;;0.15;0.15;;;16.10;99.90;;;;;;4889437;29;20056;-77
2022/09/10 00:26:10;;;;;;;0.22;0.22;;;16.10;99.90;;;;;;4873161;29;20397;-74
2022/09/10 00:28:39;;;;;;;0.20;0.20;;;16.10;99.90;;;;;;4870981;29;20065;-75
2022/09/10 00:31:05;;;;;;;0.10;0.10;;;16.10;99.90;;;;;;4877171;29;20434;-75
2022/09/10 00:33:30;;;;;;;0.20;0.20;;;16.10;99.90;;;;;;4878999;29;20109;-75
2022/09/10 00:35:58;;;;;;;0.20;0.20;;;16.10;99.90;;;;;;4858103;29;20047;-75
2022/09/10 00:38:27;;;;;;;0.10;0.10;;;16.10;99.90;;;;;;4858765;29;20048;-75
2022/09/10 00:40:55;;;;;;;0.20;0.20;;;16.00;99.90;;;;;;4861582;29;20383;-75
2022/09/10 00:43:21;;;;;;;0.20;0.20;;;16.00;99.90;;;;;;4856504;29;20053;-75
2022/09/10 00:45:51;;;;;;;0.20;0.20;;;16.00;99.90;;;;;;4863235;29;20120;-75
2022/09/10 00:48:21;;;;;;;0.17;0.17;;;16.00;99.90;;;;;;4856718;29;20054;-75
2022/09/10 00:50:50;;;;;;;0.20;0.20;;;16.00;99.90;;;;;;4875816;29;20069;-76
2022/09/10 00:53:20;;;;;;;0.13;0.13;;;16.00;99.90;;;;;;4856789;29;20060;-75
2022/09/10 00:55:49;;;;;;;0.10;0.10;;;16.00;99.90;;;;;;4858535;29;20045;-75
2022/09/10 00:58:17;;;;;;;0.20;0.20;;;16.00;99.90;;;;;;4878679;29;20049;-75
2022/09/10 01:00:43;;;;;;;0.10;0.10;;;16.00;99.90;;;;;;4879089;29;20056;-75
2022/09/10 01:03:10;;;;;;;0.10;0.10;;;16.00;99.90;;;;;;4857001;29;20045;-75
2022/09/10 01:05:38;;;;;;;0.20;0.20;;;16.00;99.90;;;;;;4848321;29;20045;-76
2022/09/10 01:08:04;;;;;;;0.13;0.13;;;16.00;99.90;;;;;;4878814;29;20080;-76
2022/09/10 01:10:42;;;;;;;0.20;0.20;;;16.00;99.90;;;;;;4859542;29;20072;-77
2022/09/10 01:13:38;;;;;;;0.20;0.20;;;16.00;99.90;;;;;;4860240;29;20133;-75
2022/09/10 01:16:29;;;;;;;0.20;0.20;;;16.00;99.90;;;;;;4867558;29;20049;-76
2022/09/10 01:19:19;;;;;;;0.20;0.20;;;16.10;99.90;;;;;;4874989;29;20513;-76
2022/09/10 01:22:11;;;;;;;0.20;0.20;;;15.80;99.90;;;;;;4874514;29;20587;-75
2022/09/10 01:24:53;;;;;;;0.10;0.10;;;15.80;99.90;;;;;;4875514;29;20627;-75
2022/09/10 01:27:38;;;;;;;0.13;0.13;;;15.80;99.90;;;;;;4848804;29;20084;-76
2022/09/10 01:30:09;;;;;;;0.20;0.20;;;15.70;99.90;;;;;;4875447;29;20401;-75
2022/09/10 01:32:49;;;;;;;0.20;0.20;;;15.60;99.90;;;;;;4859842;29;20149;-75
2022/09/10 01:35:25;;;;;;;0.13;0.13;;;15.60;99.90;;;;;;4866435;29;20049;-74
2022/09/10 01:37:56;;;;;;;0.20;0.20;;;15.60;99.90;;;;;;4874329;29;20064;-74
2022/09/10 01:40:28;;;;;;;0.20;0.20;;;15.60;99.90;;;;;;4869881;29;21020;-75
2022/09/10 01:43:03;;;;;;;0.10;0.10;;;15.70;99.90;;;;;;4874840;29;20052;-75
2022/09/10 01:45:35;;;;;;;0.20;0.20;;;15.70;99.90;;;;;;4872553;29;20045;-75
2022/09/10 01:48:47;;;;;;;0.20;0.20;;;15.80;99.90;;;;;;4871006;29;20569;-75
2022/09/10 01:51:40;;;;;;;0.10;0.10;;;15.80;99.90;;;;;;4854959;29;20049;-75
2022/09/10 01:54:28;;;;;;;0.20;0.20;;;15.80;99.90;;;;;;4857069;29;20564;-75
2022/09/10 01:57:28;;;;;;;0.20;0.20;;;15.80;99.90;;;;;;4858952;29;20116;-75
2022/09/10 02:00:07;;;;;;;0.20;0.20;;;15.90;99.90;;;;;;4857409;29;20268;-75
2022/09/10 02:02:40;;;;;;;0.17;0.17;;;15.90;99.90;;;;;;4856154;29;20112;-76
2022/09/10 02:05:07;;;;;;;0.20;0.20;;;15.90;99.90;;;;;;4856289;29;20053;-75
2022/09/10 02:07:34;;;;;;;0.20;0.20;;;15.90;99.90;;;;;;4888253;29;20048;-76
2022/09/10 02:10:03;;;;;;;0.20;0.20;;;15.90;99.90;;;;;;4857819;29;20076;-75
2022/09/10 02:12:28;;;;;;;0.10;0.10;;;15.90;99.90;;;;;;4875858;29;20084;-76
2022/09/10 02:14:56;;;;;;;0.20;0.20;;;15.90;99.90;;;;;;4876445;29;20075;-76
2022/09/10 02:17:27;;;;;;;0.10;0.10;;;15.90;99.90;;;;;;4856458;29;20118;-76
2022/09/10 02:19:54;;;;;;;0.10;0.10;;;15.90;99.90;;;;;;4876173;29;20124;-75
2022/09/10 02:22:24;;;;;;;0.20;0.20;;;15.90;99.90;;;;;;4858884;29;20048;-75
2022/09/10 02:24:50;;;;;;;0.20;0.20;;;15.90;99.90;;;;;;4873330;29;20132;-75
2022/09/10 02:27:16;;;;;;;0.20;0.20;;;15.90;99.90;;;;;;4872904;29;20053;-75
2022/09/10 02:29:42;;;;;;;0.20;0.20;;;15.90;99.90;;;;;;4873940;29;20056;-76
2022/09/10 02:32:08;;;;;;;0.10;0.10;;;15.90;99.90;;;;;;4874867;29;20049;-76
2022/09/10 02:34:35;;;;;;;0.20;0.20;;;15.90;99.90;;;;;;4853604;29;20401;-76
2022/09/10 02:37:02;;;;;;;0.17;0.17;;;15.90;99.90;;;;;;4855829;29;20371;-76
2022/09/10 02:39:28;;;;;;;0.20;0.20;;;15.90;99.90;;;;;;4858007;29;20528;-76
2022/09/10 02:41:56;;;;;;;0.20;0.20;;;16.00;99.90;;;;;;4859173;29;20089;-76
2022/09/10 02:44:22;;;;;;;0.10;0.10;;;16.00;99.90;;;;;;4856695;29;20108;-76
2022/09/10 02:46:47;;;;;;;0.10;0.10;;;16.00;99.90;;;;;;4857804;29;20276;-76
2022/09/10 02:49:13;;;;;;;0.20;0.20;;;16.00;99.90;;;;;;4873527;29;20081;-76
2022/09/10 02:51:41;;;;;;;0.20;0.20;;;15.90;99.90;;;;;;4854847;29;20049;-76
2022/09/10 02:54:07;;;;;;;0.10;0.10;;;15.90;99.90;;;;;;4874368;29;20083;-76
2022/09/10 02:56:33;;;;;;;0.10;0.10;;;15.90;99.90;;;;;;4856977;29;20107;-75
2022/09/10 02:58:59;;;;;;;0.10;0.10;;;15.90;99.90;;;;;;4870421;29;20057;-76
2022/09/10 03:01:24;;;;;;;0.20;0.20;;;16.00;99.90;;;;;;4870572;29;20096;-76
2022/09/10 03:03:53;;;;;;;0.20;0.20;;;16.00;99.90;;;;;;4870708;29;20045;-75
2022/09/10 03:06:21;;;;;;;0.17;0.17;;;16.00;99.90;;;;;;4875069;29;20501;-76
2022/09/10 03:08:47;;;;;;;0.20;0.20;;;15.90;99.90;;;;;;4873762;29;20105;-76
2022/09/10 03:11:15;;;;;;;0.10;0.10;;;16.00;99.90;;;;;;4873610;29;20174;-75
2022/09/10 03:13:42;;;;;;;0.20;0.20;;;15.90;99.90;;;;;;4858444;29;20068;-76
2022/09/10 03:16:09;;;;;;;0.10;0.10;;;16.00;99.90;;;;;;4853503;29;20056;-76
2022/09/10 03:18:34;;;;;;;0.20;0.20;;;15.80;99.90;;;;;;4872855;29;20161;-76
2022/09/10 03:21:11;;;;;;;0.10;0.10;;;16.10;99.90;;;;;;4875111;29;20135;-76
2022/09/10 03:23:39;;;;;;;0.10;0.10;;;15.70;99.90;;;;;;4860144;29;20507;-75
2022/09/10 03:26:05;;;;;;;0.10;0.10;;;15.60;99.90;;;;;;4876424;29;20068;-76
2022/09/10 03:28:32;;;;;;;0.20;0.20;;;15.70;99.90;;;;;;4870835;29;20065;-75
2022/09/10 03:30:58;;;;;;;0.20;0.20;;;15.60;99.90;;;;;;4852234;29;20547;-75
2022/09/10 03:33:23;;;;;;;0.15;0.15;;;15.60;99.90;;;;;;4857888;29;20045;-77
2022/09/10 03:35:51;;;;;;;0.10;0.10;;;15.60;99.90;;;;;;4872329;29;20045;-76
2022/09/10 03:38:17;;;;;;;0.20;0.20;;;15.50;99.90;;;;;;4854918;29;20383;-75
2022/09/10 03:40:43;;;;;;;0.17;0.17;;;15.50;99.90;;;;;;4874770;29;20049;-76
2022/09/10 03:43:08;;;;;;;0.20;0.20;;;15.50;99.90;;;;;;4869545;29;20084;-75
2022/09/10 03:45:34;;;;;;;0.20;0.20;;;15.40;99.90;;;;;;4867444;29;20049;-75
2022/09/10 03:48:00;;;;;;;0.20;0.20;;;15.50;99.90;;;;;;4876083;29;20048;-75
2022/09/10 03:50:25;;;;;;;0.20;0.20;;;15.40;99.90;;;;;;4872895;29;20136;-75
2022/09/10 03:52:51;;;;;;;0.10;0.10;;;15.40;99.90;;;;;;4872410;29;20562;-75
2022/09/10 03:55:16;;;;;;;0.20;0.20;;;15.40;99.90;;;;;;4872764;29;20605;-75
2022/09/10 03:57:42;;;;;;;0.20;0.20;;;15.40;99.90;;;;;;4856269;29;20049;-75
2022/09/10 04:00:11;;;;;;;0.20;0.20;;;15.40;99.90;;;;;;4866453;29;20107;-75
2022/09/10 04:02:37;;;;;;;0.10;0.10;;;15.40;99.90;;;;;;4859063;29;20037;-74
2022/09/10 04:05:03;;;;;;;0.20;0.20;;;16.20;99.90;;;;;;4869395;29;20053;-75
2022/09/10 04:07:29;;;;;;;0.10;0.10;;;15.50;99.90;;;;;;4892574;29;20123;-76
2022/09/10 04:09:55;;;;;;;0.20;0.20;;;15.60;99.90;;;;;;4874759;29;20570;-75
2022/09/10 04:12:20;;;;;;;0.10;0.10;;;15.50;99.90;;;;;;4861150;29;20057;-75
2022/09/10 04:14:46;;;;;;;0.10;0.10;;;15.60;99.90;;;;;;4875013;29;20059;-75
2022/09/10 04:17:12;;;;;;;0.20;0.20;;;15.60;99.90;;;;;;4872538;29;20132;-75
2022/09/10 04:19:39;;;;;;;0.10;0.10;;;15.70;99.90;;;;;;4872961;29;20045;-76
2022/09/10 04:22:04;;;;;;;0.10;0.10;;;15.70;99.90;;;;;;4878370;29;20037;-75
2022/09/10 04:24:30;;;;;;;0.20;0.20;;;15.70;99.90;;;;;;4856530;29;20047;-76
2022/09/10 04:26:56;;;;;;;0.10;0.10;;;15.70;99.90;;;;;;4873763;29;20041;-76
2022/09/10 04:29:22;;;;;;;0.20;0.20;;;15.70;99.90;;;;;;4856584;29;20053;-76
2022/09/10 04:31:47;;;;;;;0.20;0.20;;;15.80;99.90;;;;;;4854963;29;20490;-76
2022/09/10 04:34:14;;;;;;;0.20;0.20;;;15.80;99.90;;;;;;4856283;29;20140;-76
2022/09/10 04:36:40;;;;;;;0.10;0.10;;;15.80;99.90;;;;;;4873261;29;20045;-76
2022/09/10 04:39:05;;;;;;;0.10;0.10;;;15.80;99.90;;;;;;4853276;29;20061;-76
2022/09/10 04:41:31;;;;;;;0.13;0.13;;;15.80;99.90;;;;;;4837534;29;20101;-76
2022/09/10 04:43:57;;;;;;;0.20;0.20;;;15.80;99.90;;;;;;4852687;29;20080;-75
2022/09/10 04:46:23;;;;;;;0.20;0.20;;;15.70;99.90;;;;;;4836423;29;20137;-75
2022/09/10 04:48:48;;;;;;;0.20;0.20;;;15.70;99.90;;;;;;4854990;29;20486;-76
2022/09/10 04:51:14;;;;;;;0.20;0.20;;;15.70;99.90;;;;;;4837835;29;20073;-76
2022/09/10 04:53:40;;;;;;;0.10;0.10;;;15.70;99.90;;;;;;4835712;29;20122;-76
2022/09/10 04:56:06;;;;;;;0.10;0.10;;;15.70;99.90;;;;;;4837556;29;20144;-76
2022/09/10 04:58:32;;;;;;;0.20;0.20;;;15.80;99.90;;;;;;4840791;29;20132;-75
2022/09/10 05:00:58;;;;;;;0.10;0.10;;;15.80;99.90;;;;;;4853008;29;20888;-76
2022/09/10 05:03:23;;;;;;;0.10;0.10;;;15.80;99.90;;;;;;4837440;29;20041;-75
2022/09/10 05:05:49;;;;;;;0.20;0.20;;;15.80;99.90;;;;;;4850059;29;20494;-75
2022/09/10 05:08:16;;;;;;;0.13;0.13;;;15.80;99.90;;;;;;4851694;29;20553;-76
2022/09/10 05:10:43;;;;;;;0.20;0.20;;;15.80;99.90;;;;;;4850732;29;20045;-78
2022/09/10 05:13:08;;;;;;;0.20;0.20;;;15.80;99.90;;;;;;4860389;29;20452;-76
2022/09/10 05:15:39;;;;;;;0.20;0.20;;;15.80;99.90;;;;;;4859999;29;20048;-76
2022/09/10 05:18:04;;;;;;;0.10;0.10;;;15.80;99.90;;;;;;4841868;29;20048;-79
2022/09/10 05:20:30;;;;;;;0.20;0.20;;;15.70;99.90;;;;;;4851001;29;20053;-77
2022/09/10 05:22:56;;;;;;;0.20;0.20;;;15.80;99.90;;;;;;4832117;29;20061;-76
2022/09/10 05:25:23;;;;;;;0.10;0.10;;;15.80;99.90;;;;;;4856909;29;20041;-76
2022/09/10 05:27:50;;;;;;;0.10;0.10;;;15.90;99.90;;;;;;4851486;29;20058;-76
2022/09/10 05:30:16;;;;;;;0.20;0.20;;;15.80;99.90;;;;;;4851891;29;20060;-75
2022/09/10 05:32:42;;;;;;;0.10;0.10;;;15.90;99.90;;;;;;4843199;29;20038;-76
2022/09/10 05:35:08;;;;;;;0.20;0.20;;;15.90;99.90;;;;;;4836515;29;20060;-78
2022/09/10 05:37:34;;;;;;;0.20;0.20;;;15.90;99.90;;;;;;4840777;29;20573;-77
2022/09/10 05:40:02;;;;;;;0.20;0.20;;;16.00;99.90;;;;;;4867871;29;20065;-77
2022/09/10 05:42:27;;;;;;;0.20;0.20;;;16.00;99.90;;;;;;4873517;29;20049;-77
2022/09/10 05:44:53;;;;;;;0.20;0.20;;;16.00;99.90;;;;;;4871290;29;20504;-77
2022/09/10 05:47:18;;;;;;;0.20;0.20;;;16.10;99.90;;;;;;4872770;29;20049;-78
2022/09/10 05:49:48;;;;;;;0.10;0.10;;;16.70;99.90;;;;;;4871630;29;20045;-76
2022/09/10 05:52:14;;;;;;;0.17;0.17;;;16.10;99.90;;;;;;4877605;29;20110;-77
2022/09/10 05:54:40;;;;;;;0.13;0.13;;;16.10;99.90;;;;;;4873693;29;20057;-76
2022/09/10 05:57:06;;;;;;;0.17;0.17;;;16.10;99.90;;;;;;4876627;29;20088;-77
2022/09/10 05:59:33;;;;;;;0.10;0.10;;;16.20;99.90;;;;;;4872151;29;20080;-76
2022/09/10 06:01:59;;;;;;;0.17;0.17;;;16.20;99.90;;;;;;4860640;29;20707;-77
2022/09/10 06:04:25;;;;;;;0.10;0.10;;;16.20;99.90;;;;;;4875061;29;20071;-77
2022/09/10 06:06:52;;;;;;;0.40;0.30;;;16.10;99.90;;;;;;4876251;29;20068;-75
2022/09/10 06:09:18;;;;;;;0.13;0.13;;;16.20;99.90;;;;;;4862840;29;20059;-76
2022/09/10 06:11:46;;;;;;;0.20;0.20;;;16.20;99.90;;;;;;4862043;29;20053;-76
2022/09/10 06:14:13;;;;;;;0.20;0.20;;;16.20;99.90;;;;;;4877176;29;20041;-76
2022/09/10 06:16:40;;;;;;;0.20;0.20;;;16.20;99.90;;;;;;4876026;29;20084;-76
2022/09/10 06:19:07;;;;;;;0.20;0.20;;;16.20;99.90;;;;;;4861755;29;20051;-75
2022/09/10 06:21:32;;;;;;;0.20;0.20;;;16.20;99.90;;;;;;4859160;29;20131;-76
2022/09/10 06:23:58;;;;;;;0.20;0.20;;;16.30;99.90;;;;;;4854983;29;21105;-75
2022/09/10 06:26:24;;;;;;;0.10;0.10;;;16.40;99.90;;;;;;4859456;29;20053;-76
2022/09/10 06:28:50;;;;;;;0.15;0.15;;;16.30;99.90;;;;;;4855347;29;20084;-76
2022/09/10 06:31:18;;;;;;;0.20;0.20;;;16.40;99.90;;;;;;4877054;29;20084;-76
2022/09/10 06:33:46;;;;;;;0.20;0.20;;;16.40;99.90;;;;;;4877487;29;20128;-76
2022/09/10 06:36:13;;;;;;;0.10;0.10;;;16.30;99.90;;;;;;4861280;29;20129;-75
2022/09/10 06:38:39;;;;;;;0.10;0.10;;;16.40;99.90;;;;;;4861069;29;20088;-76
2022/09/10 06:41:10;;;;;;;0.20;0.20;;;16.40;99.90;;;;;;4878528;29;20120;-75
2022/09/10 06:43:37;;;;;;;0.20;0.20;;;16.50;99.90;;;;;;4878118;29;20129;-75
2022/09/10 06:46:23;;;;;;;0.20;0.20;;;16.50;99.90;;;;;;4858765;29;20055;-76
2022/09/10 06:48:48;;;;;;;0.20;0.20;;;16.50;99.90;;;;;;4875926;29;20053;-75
2022/09/10 06:51:15;;;;;;;0.20;0.20;;;16.50;99.90;;;;;;4870340;29;20056;-76
2022/09/10 06:53:43;;;;;;;0.10;0.10;;;16.40;99.90;;;;;;4877888;29;20049;-76
2022/09/10 06:56:12;;;;;;;0.20;0.20;;;16.50;99.90;;;;;;4859930;29;20053;-76
2022/09/10 06:58:38;;;;;;;0.20;0.20;;;16.50;99.90;;;;;;4862009;29;20056;-75
2022/09/10 07:01:14;;;;;;;0.20;0.20;;;16.50;99.90;;;;;;4876555;29;20045;-75
2022/09/10 07:03:42;;;;;;;0.20;0.20;;;16.50;99.90;;;;;;4877204;29;20092;-74
2022/09/10 07:06:10;;;;;;;0.20;0.20;;;16.60;99.90;;;;;;4868682;29;20565;-74
2022/09/10 07:08:36;;;;;;;0.20;0.20;;;16.50;99.90;;;;;;4842678;29;20045;-74
2022/09/10 07:11:10;;;;;;;0.20;0.20;;;16.60;99.90;;;;;;4872876;29;20045;-74
2022/09/10 07:13:36;;;;;;;0.10;0.10;;;16.60;99.90;;;;;;4877110;29;20051;-75
2022/09/10 07:16:02;;;;;;;0.10;0.10;;;16.60;99.90;;;;;;4873298;29;20125;-75
2022/09/10 07:18:29;;;;;;;0.20;0.20;;;16.60;99.90;;;;;;4876562;29;20131;-75
2022/09/10 07:21:12;;;;;;;0.20;0.20;;;16.70;99.90;;;;;;4875800;29;20144;-75
2022/09/10 07:23:38;;;;;;;0.10;0.10;;;16.70;99.90;;;;;;4876892;29;20128;-75
2022/09/10 07:26:06;;;;;;;0.20;0.20;;;16.70;99.90;;;;;;4877187;29;20041;-75
2022/09/10 07:28:33;;;;;;;0.10;0.10;;;16.70;99.90;;;;;;4859846;29;20045;-75
2022/09/10 07:31:12;;;;;;;0.20;0.20;;;16.70;99.90;;;;;;4875284;29;20061;-75
2022/09/10 07:33:38;;;;;;;0.20;0.20;;;16.70;99.90;;;;;;4875984;29;20053;-75
2022/09/10 07:36:05;;;;;;;0.20;0.20;;;16.70;99.90;;;;;;4877934;29;20459;-75
2022/09/10 07:38:31;;;;;;;0.10;0.10;;;16.70;99.90;;;;;;4875450;29;20052;-75
2022/09/10 07:41:00;;;;;;;0.20;0.20;;;16.70;99.90;;;;;;4874784;29;20052;-76
2022/09/10 07:43:25;;;;;;;0.38;0.38;;;16.70;99.90;;;;;;4876791;29;20093;-76
2022/09/10 07:45:51;;;;;;;0.20;0.20;;;16.60;99.90;;;;;;4858462;29;20048;-75
2022/09/10 07:48:16;;;;;;;0.10;0.10;;;16.70;99.90;;;;;;4874988;29;20053;-75
2022/09/10 07:50:42;;;;;;;0.20;0.20;;;16.70;99.90;;;;;;4872813;29;20037;-75
2022/09/10 07:53:08;;;;;;;0.10;0.10;;;16.70;99.90;;;;;;4858791;29;20995;-76
2022/09/10 07:55:33;;;;;;;0.17;0.17;;;16.70;99.90;;;;;;4876675;29;20045;-75
2022/09/10 07:57:59;;;;;;;0.20;0.20;;;16.70;99.90;;;;;;4859779;29;20152;-76
2022/09/10 08:00:25;;;;;;;0.10;0.10;;;16.70;99.90;;;;;;4858609;29;20040;-75
2022/09/10 08:02:50;;;;;;;0.20;0.20;;;16.70;99.90;;;;;;4859280;29;20060;-76
2022/09/10 08:05:16;;;;;;;0.20;0.20;;;16.70;99.90;;;;;;4873568;29;20490;-76
2022/09/10 08:07:41;;;;;;;0.10;0.10;;;16.70;99.90;;;;;;4842067;29;20533;-76
2022/09/10 08:10:09;;;;;;;0.10;0.10;;;16.80;99.90;;;;;;4859121;29;20076;-75
2022/09/10 08:12:35;;;;;;;0.20;0.20;;;16.80;99.90;;;;;;4857726;29;20042;-75
2022/09/10 08:15:02;;;;;;;0.15;0.15;;;16.80;99.90;;;;;;4857817;29;20053;-76
2022/09/10 08:17:31;;;;;;;0.10;0.10;;;16.70;99.90;;;;;;4856489;29;20045;-75
2022/09/10 08:19:57;;;;;;;0.10;0.10;;;16.70;99.90;;;;;;4875611;29;20080;-76
2022/09/10 08:22:23;;;;;;;0.10;0.10;;;16.70;99.90;;;;;;4876583;29;20141;-76
2022/09/10 08:24:49;;;;;;;0.20;0.20;;;16.60;99.90;;;;;;4859814;29;20057;-76
2022/09/10 08:27:15;;;;;;;0.10;0.10;;;16.80;99.90;;;;;;4875165;29;20060;-76
2022/09/10 08:29:42;;;;;;;0.10;0.10;;;16.80;99.90;;;;;;4876002;29;20719;-76
2022/09/10 08:32:08;;;;;;;0.10;0.10;;;16.80;99.90;;;;;;4875362;29;20085;-76
2022/09/10 08:34:34;;;;;;;0.20;0.20;;;16.90;99.90;;;;;;4876107;29;20127;-76
2022/09/10 08:37:02;;;;;;;0.20;0.20;;;16.90;99.90;;;;;;4859638;29;20537;-75
2022/09/10 08:39:29;;;;;;;0.10;0.10;;;16.80;99.90;;;;;;4859880;29;20072;-76
2022/09/10 08:42:04;;;;;;;0.13;0.13;;;17.00;99.90;;;;;;4858216;29;20057;-76
2022/09/10 08:44:53;;;;;;;0.28;0.28;;;17.00;99.90;;;;;;4877863;29;20177;-76
2022/09/10 08:47:46;;;;;;;0.20;0.20;;;17.00;99.90;;;;;;4861744;29;20049;-76
2022/09/10 08:50:35;;;;;;;0.10;0.10;;;17.00;99.90;;;;;;4879490;29;20056;-76
2022/09/10 08:53:24;;;;;;;0.20;0.20;;;17.00;99.90;;;;;;4863372;29;20467;-76
2022/09/10 08:55:58;;;;;;;0.20;0.20;;;17.10;99.90;;;;;;4874838;29;20048;-76
2022/09/10 08:58:35;;;;;;;0.10;0.10;;;17.10;99.90;;;;;;4863381;29;20045;-75
2022/09/10 09:01:03;;;;;;;0.20;0.20;;;17.10;99.90;;;;;;4850412;29;20057;-76
2022/09/10 09:03:46;;;;;;;0.10;0.10;;;17.10;99.90;;;;;;4860778;29;20121;-76
2022/09/10 09:06:47;;;;;;;0.22;0.22;;;17.00;99.90;;;;;;4844630;29;20482;-76
2022/09/10 09:09:13;;;;;;;0.13;0.13;;;17.10;99.90;;;;;;4846687;29;20413;-76
2022/09/10 09:12:17;;;;;;;0.10;0.10;;;17.10;99.90;;;;;;4850246;29;20053;-76
2022/09/10 09:14:52;;;;;;;0.10;0.10;;;17.10;99.90;;;;;;4845929;29;20060;-76
2022/09/10 09:17:35;;;;;;;0.20;0.20;;;17.20;99.90;;;;;;4855872;29;20177;-76
2022/09/10 09:20:07;;;;;;;0.17;0.17;;;17.20;99.90;;;;;;4864459;29;20040;-76
2022/09/10 09:23:02;;;;;;;0.20;0.20;;;17.20;99.90;;;;;;4879186;29;20045;-76
2022/09/10 09:25:42;;;;;;;0.20;0.20;;;17.20;99.90;;;;;;4864914;29;20047;-76
2022/09/10 09:28:28;;;;;;;0.10;0.10;;;17.20;99.90;;;;;;4862313;29;20651;-76
2022/09/10 09:30:58;;;;;;;0.20;0.20;;;17.30;99.90;;;;;;4877207;29;20460;-76
2022/09/10 09:33:24;;;;;;;0.20;0.20;;;17.30;99.90;;;;;;4879099;29;20056;-76
2022/09/10 09:35:59;;;;;;;0.20;0.20;;;17.30;99.90;;;;;;4859946;29;20045;-76
2022/09/10 09:38:41;;;;;;;0.10;0.10;;;17.30;99.90;;;;;;4860625;29;20056;-76
2022/09/10 09:41:20;;;;;;;0.10;0.10;;;17.30;99.90;;;;;;4861905;29;20083;-76
2022/09/10 09:44:02;;;;;;;0.10;0.10;;;17.30;99.90;;;;;;4877162;29;20108;-76
2022/09/10 09:46:27;;;;;;;0.13;0.13;;;17.30;99.90;;;;;;4876046;29;20120;-76
2022/09/10 09:48:58;;;;;;;0.20;0.20;;;17.30;99.90;;;;;;4878796;29;20148;-76
2022/09/10 09:51:26;;;;;;;0.10;0.10;;;17.40;99.90;;;;;;4859018;29;20113;-75
2022/09/10 09:54:02;;;;;;;0.20;0.20;;;17.40;99.90;;;;;;4866268;29;20137;-76
2022/09/10 09:56:38;;;;;;;0.20;0.20;;;17.40;99.90;;;;;;4860479;29;20048;-75
2022/09/10 09:59:10;;;;;;;0.10;0.10;;;17.40;99.90;;;;;;4878553;29;20049;-75
2022/09/10 10:01:39;;;;;;;0.20;0.20;;;17.40;99.90;;;;;;4878424;29;20140;-77
2022/09/10 10:04:20;;;;;;;0.20;0.20;;;17.50;99.90;;;;;;4877368;29;20616;-76
2022/09/10 10:06:52;;;;;;;0.10;0.10;;;17.50;99.90;;;;;;4872036;29;20049;-76
2022/09/10 10:09:25;;;;;;;0.17;0.17;;;17.50;99.90;;;;;;4875227;29;20305;-76
2022/09/10 10:11:53;;;;;;;0.20;0.20;;;17.50;99.90;;;;;;4875816;29;20051;-76
2022/09/10 10:14:19;;;;;;;0.20;0.20;;;17.50;99.90;;;;;;4871030;29;20064;-76
2022/09/10 10:16:47;;;;;;;0.15;0.15;;;17.50;99.90;;;;;;4862743;29;20406;-76
2022/09/10 10:19:33;;;;;;;0.10;0.10;;;17.60;99.90;;;;;;4851680;29;20068;-76
2022/09/10 10:22:15;;;;;;;0.15;0.15;;;17.60;99.90;;;;;;4867105;29;20087;-76
2022/09/10 10:24:42;;;;;;;0.15;0.15;;;17.50;99.90;;;;;;4867268;29;20067;-76
2022/09/10 10:27:26;;;;;;;0.20;0.20;;;17.60;99.90;;;;;;4859507;29;20061;-76
2022/09/10 10:29:59;;;;;;;0.20;0.20;;;17.60;99.90;;;;;;4852732;29;20057;-76
2022/09/10 10:32:37;;;;;;;0.20;0.20;;;17.60;99.90;;;;;;4859894;29;20055;-76
2022/09/10 10:35:28;;;;;;;0.20;0.20;;;17.70;99.90;;;;;;4858291;29;20052;-76
2022/09/10 10:38:21;;;;;;;0.20;0.20;;;17.70;99.90;;;;;;4860548;29;20050;-76
2022/09/10 10:41:12;;;;;;;0.15;0.15;;;17.70;99.90;;;;;;4871899;29;20059;-76
2022/09/10 10:44:15;;;;;;;0.20;0.20;;;17.70;99.90;;;;;;4877140;29;20055;-76
2022/09/10 10:47:02;;;;;;;0.17;0.17;;;17.70;99.90;;;;;;4853453;29;20073;-76
2022/09/10 10:49:57;;;;;;;0.15;0.15;;;17.80;99.90;;;;;;4873126;29;20117;-76
2022/09/10 10:52:32;;;;;;;0.20;0.20;;;17.80;99.90;;;;;;4858430;29;20060;-76
2022/09/10 10:55:10;;;;;;;0.15;0.15;;;17.90;99.90;;;;;;4859408;29;20105;-76
2022/09/10 10:58:11;;;;;;;0.20;0.20;;;17.90;99.90;;;;;;4880525;29;20625;-76
2022/09/10 11:00:46;;;;;;;0.30;0.30;;;17.90;99.90;;;;;;4818766;29;20073;-75
2022/09/10 11:03:21;;;;;;;0.10;0.10;;;18.00;99.90;;;;;;4850935;29;20049;-76
2022/09/10 11:06:07;;;;;;;0.10;0.10;;;18.00;99.90;;;;;;4870383;29;20397;-76
2022/09/10 11:08:57;;;;;;;0.10;0.10;;;18.00;99.90;;;;;;4873086;29;20417;-75
2022/09/10 11:11:30;;;;;;;0.20;0.20;;;18.00;99.90;;;;;;4858264;29;20113;-75
2022/09/10 11:14:18;;;;;;;0.20;0.20;;;18.20;99.90;;;;;;4857732;29;20044;-75
2022/09/10 11:16:53;;;;;;;0.10;0.10;;;18.10;99.90;;;;;;4846527;29;20053;-76
2022/09/10 11:19:34;;;;;;;0.20;0.20;;;18.10;99.90;;;;;;4877290;29;20052;-75
2022/09/10 11:22:27;;;;;;;0.20;0.20;;;18.20;99.90;;;;;;4865930;29;20088;-76
2022/09/10 11:25:16;;;;;;;0.20;0.20;;;18.20;99.90;;;;;;4874405;29;20040;-75
2022/09/10 11:27:52;;;;;;;0.10;0.10;;;18.30;99.90;;;;;;4874061;29;20041;-76
2022/09/10 11:30:18;;;;;;;0.20;0.20;;;18.30;99.90;;;;;;4850530;29;20057;-76
2022/09/10 11:33:07;;;;;;;0.20;0.20;;;18.40;99.90;;;;;;4873103;29;20394;-76
2022/09/10 11:35:39;;;;;;;0.17;0.17;;;18.50;99.90;;;;;;4841230;29;20061;-77
2022/09/10 11:38:23;;;;;;;0.20;0.20;;;18.50;99.90;;;;;;4873811;29;20085;-76
2022/09/10 11:41:10;;;;;;;0.20;0.20;;;18.60;99.90;;;;;;4871346;29;20076;-76
2022/09/10 11:43:57;;;;;;;0.10;0.10;;;18.70;99.90;;;;;;4849566;29;20056;-77
2022/09/10 11:46:31;;;;;;;0.20;0.20;;;18.80;99.90;;;;;;4848483;29;20085;-77
2022/09/10 11:49:02;;;;;;;0.20;0.20;;;19.10;99.90;;;;;;4866653;29;20063;-77
2022/09/10 11:51:35;;;;;;;0.20;0.20;;;19.20;99.90;;;;;;4860751;29;20053;-78
2022/09/10 11:54:04;;;;;;;0.28;0.28;;;19.30;99.90;;;;;;4873623;29;20304;-77
2022/09/10 11:56:51;;;;;;;0.25;0.25;;;19.40;99.90;;;;;;4880070;29;20223;-76
2022/09/10 11:59:42;;;;;;;0.20;0.20;;;19.60;99.90;;;;;;4851110;29;22312;-78
2022/09/10 12:02:26;;;;;;;0.20;0.20;;;19.90;99.90;;;;;;4866899;29;20692;-78
2022/09/10 12:05:19;;;;;;;0.20;0.20;;;20.10;99.90;;;;;;4867131;29;20847;-78
2022/09/10 12:08:12;;;;;;;0.20;0.20;;;20.30;99.90;;;;;;4876793;29;20105;-79
2022/09/10 12:10:44;;;;;;;0.20;0.20;;;20.30;99.90;;;;;;4851165;29;20478;-77
2022/09/10 12:13:12;;;;;;;0.22;0.22;;;20.60;99.90;;;;;;4852516;29;20076;-77
2022/09/10 12:15:38;;;;;;;0.20;0.20;;;20.80;99.90;;;;;;4853741;29;20053;-77
2022/09/10 12:18:27;;;;;;;0.20;0.20;;;21.10;99.90;;;;;;4872795;29;20093;-77
2022/09/10 12:21:07;;;;;;;0.20;0.20;;;21.30;99.90;;;;;;4876782;29;20067;-77
2022/09/10 12:23:36;;;;;;;0.30;0.30;;;21.40;99.90;;;;;;4879161;29;20076;-77
2022/09/10 12:26:14;;;;;;;0.20;0.20;;;21.40;99.90;;;;;;4871736;29;20110;-77
2022/09/10 12:28:44;;;;;;;0.20;0.20;;;21.40;99.90;;;;;;4860091;29;20049;-77
2022/09/10 12:31:14;;;;;;;0.20;0.20;;;21.60;99.90;;;;;;4870842;29;20671;-82
2022/09/10 12:33:43;;;;;;;0.20;0.20;;;21.80;99.90;;;;;;4863336;29;20051;-79
2022/09/10 12:36:13;;;;;;;0.20;0.20;;;21.90;99.90;;;;;;4887679;29;20049;-84
2022/09/10 12:38:47;;;;;;;0.25;0.25;;;21.80;99.90;;;;;;4855405;29;20049;-78
2022/09/10 12:41:22;;;;;;;0.20;0.20;;;21.80;99.90;;;;;;4867952;29;20057;-81
2022/09/10 12:43:47;;;;;;;0.20;0.20;;;21.90;99.90;;;;;;4865149;29;20045;-79
2022/09/10 12:46:13;;;;;;;0.20;0.20;;;21.90;99.90;;;;;;4856285;29;20145;-79
2022/09/10 12:48:45;;;;;;;0.20;0.20;;;21.90;99.90;;;;;;4851972;29;20401;-78
2022/09/10 12:51:17;;;;;;;0.20;0.20;;;21.80;99.90;;;;;;4859421;29;20626;-79
2022/09/10 12:53:42;;;;;;;0.20;0.20;;;21.80;99.90;;;;;;4855359;29;20124;-78
2022/09/10 12:56:38;;;;;;;0.20;0.20;;;21.80;99.90;;;;;;4860828;29;20053;-78
2022/09/10 12:59:13;;;;;;;0.22;0.22;;;21.80;99.90;;;;;;4845872;29;20050;-78
2022/09/10 13:01:45;;;;;;;0.20;0.20;;;21.70;99.90;;;;;;4860138;29;20149;-79
2022/09/10 13:04:41;;;;;;;0.20;0.20;;;21.50;99.90;;;;;;4871434;29;20417;-81
2022/09/10 13:07:44;;;;;;;0.13;0.13;;;21.40;99.90;;;;;;4849879;29;20060;-78
2022/09/10 13:10:18;;;;;;;0.20;0.20;;;21.30;99.90;;;;;;4852406;29;20061;-79
2022/09/10 13:12:45;;;;;;;0.17;0.17;;;21.20;99.90;;;;;;4864804;29;20050;-78